Terminal Aerodrome Forecast
Issued by NWS Goodland, KS

Home | Current Version | Previous Version | Text Only | Print | Product List | Glossary On
Versions: 1 2 3 4 5 6 7 8 9 10 11 12 13 14 15 16 17 18 19 20 21 22 23 24 25 26
000
FTUS43 KGLD 261234 AAA
TAFGLD
TAF AMD
KGLD 261234Z 2613/2712 09013G20KT 2SM -RA BR VCTS OVC005CB
      TEMPO 2613/2616 1/2SM FG OVC002
     FM261800 07014G22KT P6SM OVC007
      TEMPO 2618/2621 6SM -RA BR
     FM270100 06010KT 6SM -RA BR OVC003
     FM270800 05012KT P6SM OVC007=

USA.gov is the U.S. government's official web portal to all federal, state and local government web resources and services.